Time;durP1;ratioP1;P1;durP2;ratioP2;P2;SDS_P1;SDS_P2;PMS_P1;PMS_P2;Temp;Humidity;BMP_temperature;BMP_pressure;BME280_temperature;BME280_humidity;BME280_pressure;Samples;Min_cycle;Max_cycle;Signal;HPM_P1;HPM_P2
2021/03/14 00:01:16;;;;;;;5.68;1.80;;;15.00;53.70;;;;;;5094870;28;20052;-72
2021/03/14 00:03:42;;;;;;;7.72;1.75;;;14.90;53.70;;;;;;5094861;28;20430;-74
2021/03/14 00:06:08;;;;;;;8.50;1.73;;;14.90;53.80;;;;;;5095535;28;20051;-73
2021/03/14 00:08:34;;;;;;;9.90;1.73;;;14.90;53.90;;;;;;5094267;28;20048;-73
2021/03/14 00:11:08;;;;;;;5.95;1.40;;;14.90;54.20;;;;;;5095300;28;20069;-72
2021/03/14 00:13:36;;;;;;;8.18;1.88;;;14.90;53.90;;;;;;5082879;28;20031;-74
2021/03/14 00:16:05;;;;;;;6.97;1.55;;;14.90;54.00;;;;;;5095549;28;20040;-75
2021/03/14 00:18:42;;;;;;;10.65;1.95;;;14.90;53.80;;;;;;5094970;28;20091;-74
2021/03/14 00:21:10;;;;;;;8.50;1.90;;;14.90;53.70;;;;;;5094926;28;20078;-73
2021/03/14 00:23:37;;;;;;;7.13;1.67;;;14.80;53.80;;;;;;5095106;28;20430;-73
2021/03/14 00:26:04;;;;;;;7.13;1.60;;;14.80;53.90;;;;;;5095294;28;20047;-75
2021/03/14 00:28:30;;;;;;;8.68;1.80;;;14.80;54.00;;;;;;5095491;28;20435;-72
2021/03/14 00:30:56;;;;;;;8.95;2.03;;;14.80;54.10;;;;;;5094754;28;20343;-72
2021/03/14 00:33:22;;;;;;;7.53;2.40;;;14.80;54.20;;;;;;5094511;28;20040;-73
2021/03/14 00:35:48;;;;;;;8.43;2.17;;;14.80;54.20;;;;;;5095131;28;20438;-73
2021/03/14 00:38:14;;;;;;;8.88;2.22;;;14.80;54.30;;;;;;5095120;28;20086;-74
2021/03/14 00:40:40;;;;;;;8.73;1.90;;;14.80;54.30;;;;;;5094523;28;20447;-73
2021/03/14 00:43:07;;;;;;;11.68;2.05;;;14.80;54.20;;;;;;5094615;28;20454;-72
2021/03/14 00:45:36;;;;;;;9.65;1.83;;;14.80;54.80;;;;;;5094831;28;20040;-72
2021/03/14 00:48:07;;;;;;;10.02;2.15;;;14.80;54.40;;;;;;5095291;28;20431;-72
2021/03/14 00:50:40;;;;;;;12.18;2.20;;;14.80;54.20;;;;;;5094615;28;20040;-72
2021/03/14 00:53:06;;;;;;;;;;;14.70;54.10;;;;;;5094979;28;20066;-73
2021/03/14 00:55:33;;;;;;;9.35;2.15;;;14.70;54.10;;;;;;5095214;28;19916;-75
2021/03/14 00:57:59;;;;;;;7.90;2.28;;;14.70;54.50;;;;;;5094958;28;20044;-75
2021/03/14 01:00:25;;;;;;;8.93;2.25;;;14.70;54.30;;;;;;5093380;28;20075;-73
2021/03/14 01:02:51;;;;;;;7.68;1.90;;;14.70;54.30;;;;;;5094942;28;20040;-74
2021/03/14 01:05:17;;;;;;;10.65;1.65;;;14.70;54.20;;;;;;5094857;28;20062;-75
2021/03/14 01:07:43;;;;;;;7.38;2.10;;;14.70;54.20;;;;;;5095060;28;20439;-74
2021/03/14 01:10:10;;;;;;;8.98;2.28;;;14.70;54.40;;;;;;5094240;28;20039;-74
2021/03/14 01:12:38;;;;;;;7.97;2.00;;;14.70;54.50;;;;;;5094472;28;20039;-74
2021/03/14 01:15:09;;;;;;;8.65;1.85;;;14.70;54.40;;;;;;5094424;28;20351;-73
2021/03/14 01:17:35;;;;;;;9.02;2.10;;;14.70;54.40;;;;;;5094507;28;20169;-73
2021/03/14 01:20:02;;;;;;;9.90;2.15;;;14.70;54.50;;;;;;5094150;28;20455;-75
2021/03/14 01:22:28;;;;;;;8.82;2.28;;;14.60;54.30;;;;;;5096843;28;20051;-73
2021/03/14 01:24:54;;;;;;;11.75;1.98;;;14.70;54.30;;;;;;5098425;28;20342;-74
2021/03/14 01:27:19;;;;;;;9.82;2.50;;;14.70;54.50;;;;;;5097898;28;20348;-74
2021/03/14 01:29:45;;;;;;;8.02;1.92;;;14.60;54.50;;;;;;5098058;28;20032;-75
2021/03/14 01:32:11;;;;;;;10.13;2.30;;;14.60;54.30;;;;;;5098158;28;20040;-73
2021/03/14 01:34:37;;;;;;;7.88;1.95;;;14.60;54.40;;;;;;5098026;28;20056;-74
2021/03/14 01:37:03;;;;;;;9.65;2.10;;;14.60;54.50;;;;;;5097489;28;20109;-74
2021/03/14 01:39:28;;;;;;;8.50;2.22;;;14.60;54.40;;;;;;5097668;28;20032;-73
2021/03/14 01:41:54;;;;;;;9.98;2.10;;;14.60;54.30;;;;;;5097347;28;20116;-74
2021/03/14 01:44:20;;;;;;;9.50;2.25;;;14.60;54.50;;;;;;5097551;28;20399;-74
2021/03/14 01:46:46;;;;;;;10.60;2.63;;;14.60;54.40;;;;;;5097515;28;20119;-74
2021/03/14 01:49:13;;;;;;;9.60;2.50;;;14.60;54.40;;;;;;5097689;28;20462;-74
2021/03/14 01:51:40;;;;;;;11.20;2.83;;;14.60;54.40;;;;;;5097804;28;20347;-73
2021/03/14 01:54:06;;;;;;;9.77;2.10;;;14.50;54.50;;;;;;5097391;28;20537;-72
2021/03/14 01:56:32;;;;;;;9.68;2.30;;;14.50;54.40;;;;;;5097986;28;20054;-73
2021/03/14 01:58:58;;;;;;;9.55;2.50;;;14.60;54.40;;;;;;5097196;28;20346;-75
2021/03/14 02:01:25;;;;;;;9.90;2.40;;;14.50;54.30;;;;;;5096993;28;20052;-72
2021/03/14 02:03:51;;;;;;;8.60;2.42;;;14.50;54.30;;;;;;5097055;28;20040;-74
2021/03/14 02:06:16;;;;;;;11.30;2.85;;;14.50;54.20;;;;;;5097646;28;20070;-73
2021/03/14 02:08:42;;;;;;;9.98;2.78;;;14.50;54.40;;;;;;5097377;28;20101;-74
2021/03/14 02:11:08;;;;;;;9.57;2.38;;;14.50;54.50;;;;;;5096651;28;20044;-72
2021/03/14 02:13:41;;;;;;;9.07;2.20;;;14.50;54.40;;;;;;5097612;28;20039;-73
2021/03/14 02:16:36;;;;;;;8.47;1.63;;;14.50;54.60;;;;;;5097452;28;20419;-75
2021/03/14 02:19:08;;;;;;;13.65;2.38;;;14.50;54.40;;;;;;5094291;28;20389;-74
2021/03/14 02:21:35;;;;;;;8.90;2.03;;;14.50;54.60;;;;;;5097560;28;20052;-74
2021/03/14 02:24:04;;;;;;;12.88;2.42;;;14.50;54.60;;;;;;5097263;28;20043;-74
2021/03/14 02:26:43;;;;;;;7.90;2.08;;;14.50;54.60;;;;;;5096669;28;20350;-73
2021/03/14 02:29:17;;;;;;;8.43;1.88;;;14.40;54.50;;;;;;5096536;28;20050;-72
2021/03/14 02:31:45;;;;;;;11.75;2.38;;;14.40;54.60;;;;;;5096125;28;20051;-74
2021/03/14 02:34:27;;;;;;;11.77;3.20;;;14.50;54.60;;;;;;5096836;28;20040;-74
2021/03/14 02:36:54;;;;;;;10.27;2.17;;;14.40;54.70;;;;;;5096436;28;20048;-74
2021/03/14 02:39:22;;;;;;;11.82;2.63;;;14.40;54.70;;;;;;5096253;28;20118;-73
2021/03/14 02:41:54;;;;;;;10.20;2.35;;;14.40;54.60;;;;;;5096575;28;20441;-73
2021/03/14 02:44:25;;;;;;;6.88;2.30;;;14.40;54.60;;;;;;5096483;28;20035;-72
2021/03/14 02:46:53;;;;;;;7.70;2.00;;;14.40;54.70;;;;;;5097045;28;20434;-73
2021/03/14 02:49:23;;;;;;;9.18;2.10;;;14.40;54.70;;;;;;5095971;28;20060;-74
2021/03/14 02:51:50;;;;;;;9.10;2.10;;;14.40;54.70;;;;;;5096340;28;20449;-75
2021/03/14 02:54:19;;;;;;;8.95;2.28;;;14.40;54.60;;;;;;5096786;28;20036;-73
2021/03/14 02:56:48;;;;;;;8.57;2.08;;;14.40;54.70;;;;;;5096706;28;20044;-74
2021/03/14 02:59:19;;;;;;;7.55;2.15;;;14.40;54.80;;;;;;5095951;28;20049;-72
2021/03/14 03:01:47;;;;;;;10.23;2.72;;;14.30;54.70;;;;;;5096273;28;20109;-74
2021/03/14 03:04:16;;;;;;;8.18;2.10;;;14.30;54.50;;;;;;5096580;28;20492;-73
2021/03/14 03:06:43;;;;;;;9.95;2.85;;;14.40;54.60;;;;;;5096107;28;20118;-72
2021/03/14 03:09:10;;;;;;;6.93;1.90;;;14.30;55.30;;;;;;5095842;28;20359;-72
2021/03/14 03:11:38;;;;;;;12.27;2.40;;;14.30;54.70;;;;;;5095882;28;20032;-72
2021/03/14 03:14:05;;;;;;;9.40;3.10;;;14.30;54.60;;;;;;5096465;28;20048;-73
2021/03/14 03:16:31;;;;;;;10.32;2.40;;;14.30;54.80;;;;;;5096073;28;20086;-72
2021/03/14 03:18:58;;;;;;;9.10;2.92;;;14.30;54.80;;;;;;5095742;28;20055;-74
2021/03/14 03:21:26;;;;;;;10.18;2.40;;;14.30;54.90;;;;;;5096477;28;20051;-72
2021/03/14 03:23:52;;;;;;;12.98;2.92;;;14.30;55.00;;;;;;5096152;28;20043;-72
2021/03/14 03:26:18;;;;;;;9.52;2.60;;;14.30;54.80;;;;;;5095863;28;20043;-73
2021/03/14 03:28:44;;;;;;;9.32;2.90;;;14.30;54.80;;;;;;5096272;28;20043;-73
2021/03/14 03:31:11;;;;;;;7.05;2.05;;;14.30;54.80;;;;;;5095463;28;20075;-72
2021/03/14 03:33:37;;;;;;;8.73;2.42;;;14.30;54.90;;;;;;5095689;28;20428;-73
2021/03/14 03:36:04;;;;;;;10.02;2.45;;;14.30;55.70;;;;;;5095760;28;20077;-75
2021/03/14 03:38:34;;;;;;;12.60;2.90;;;14.30;55.00;;;;;;5096185;28;20062;-72
2021/03/14 03:41:01;;;;;;;8.70;2.17;;;14.30;55.00;;;;;;5095761;28;20126;-73
2021/03/14 03:43:35;;;;;;;9.75;2.53;;;14.30;55.00;;;;;;5095422;28;20036;-74
2021/03/14 03:46:07;;;;;;;14.57;2.95;;;14.30;55.10;;;;;;5095627;28;20346;-73
2021/03/14 03:48:44;;;;;;;11.25;2.90;;;14.30;55.10;;;;;;5095536;28;20043;-74
2021/03/14 03:51:11;;;;;;;10.90;2.10;;;14.30;55.20;;;;;;5077508;28;20098;-72
2021/03/14 03:53:41;;;;;;;10.48;2.33;;;14.20;55.10;;;;;;5095212;28;20050;-73
2021/03/14 03:56:09;;;;;;;9.98;2.58;;;14.20;55.10;;;;;;5096108;28;20062;-73
2021/03/14 03:58:35;;;;;;;10.82;2.47;;;14.20;55.20;;;;;;5095053;28;20044;-72
2021/03/14 04:01:03;;;;;;;14.55;2.67;;;14.30;55.20;;;;;;5094967;28;20131;-74
2021/03/14 04:03:34;;;;;;;12.43;3.10;;;14.30;55.20;;;;;;5095630;28;20430;-72
2021/03/14 04:06:01;;;;;;;9.50;2.40;;;14.20;55.20;;;;;;5095683;28;20044;-73
2021/03/14 04:08:29;;;;;;;10.48;2.72;;;14.20;55.30;;;;;;5095278;28;20089;-72
2021/03/14 04:10:56;;;;;;;9.05;3.08;;;14.20;55.40;;;;;;5095201;28;20040;-74
2021/03/14 04:13:23;;;;;;;8.40;1.98;;;14.20;55.30;;;;;;5094436;28;20051;-72
2021/03/14 04:15:49;;;;;;;9.77;2.35;;;14.20;55.40;;;;;;5096103;28;20072;-74
2021/03/14 04:18:17;;;;;;;11.30;2.83;;;14.20;55.30;;;;;;5094923;28;20071;-74
2021/03/14 04:20:43;;;;;;;8.10;2.13;;;14.20;55.50;;;;;;5095195;28;20036;-72
2021/03/14 04:23:18;;;;;;;9.55;2.13;;;14.20;55.50;;;;;;5094841;28;20040;-73
2021/03/14 04:25:45;;;;;;;11.52;2.55;;;14.20;55.40;;;;;;5095063;28;20044;-72
2021/03/14 04:28:11;;;;;;;10.32;2.75;;;14.20;55.40;;;;;;5095423;28;20040;-72
2021/03/14 04:30:37;;;;;;;9.75;2.28;;;14.20;55.40;;;;;;5095415;28;20036;-74
2021/03/14 04:33:04;;;;;;;10.38;2.50;;;14.20;55.40;;;;;;5094407;28;20040;-73
2021/03/14 04:35:31;;;;;;;9.25;2.47;;;14.10;55.40;;;;;;5094316;28;20047;-73
2021/03/14 04:37:57;;;;;;;9.35;2.28;;;14.20;55.40;;;;;;5094439;28;20040;-72
2021/03/14 04:40:24;;;;;;;9.23;2.53;;;14.20;55.50;;;;;;5095099;28;20046;-72
2021/03/14 04:42:53;;;;;;;9.80;1.88;;;14.10;55.40;;;;;;5094556;28;20028;-73
2021/03/14 04:45:20;;;;;;;8.45;2.28;;;14.20;55.60;;;;;;5095505;28;20046;-73
2021/03/14 04:47:46;;;;;;;9.52;2.63;;;14.10;55.40;;;;;;5094840;28;20044;-73
2021/03/14 04:50:15;;;;;;;7.68;1.92;;;14.10;55.50;;;;;;5094939;28;20070;-74
2021/03/14 04:52:44;;;;;;;9.32;2.25;;;14.10;55.40;;;;;;5094890;28;20036;-73
2021/03/14 04:55:13;;;;;;;7.88;2.03;;;14.10;55.40;;;;;;5095176;28;20040;-72
2021/03/14 04:57:40;;;;;;;7.93;1.95;;;14.10;55.40;;;;;;5097585;28;20047;-72
2021/03/14 05:00:10;;;;;;;6.85;2.08;;;14.10;55.50;;;;;;5097984;28;20051;-73
2021/03/14 05:02:39;;;;;;;9.65;2.33;;;14.10;55.50;;;;;;5098013;28;20112;-72
2021/03/14 05:05:06;;;;;;;9.05;2.85;;;14.10;55.50;;;;;;5098974;28;20097;-72
2021/03/14 05:07:34;;;;;;;10.02;2.40;;;14.10;55.00;;;;;;5097460;28;20436;-73
2021/03/14 05:10:00;;;;;;;9.30;2.58;;;14.10;54.80;;;;;;5098733;28;20082;-76
2021/03/14 05:12:26;;;;;;;12.02;2.72;;;14.10;54.60;;;;;;5098799;28;20044;-72
2021/03/14 05:14:54;;;;;;;12.10;2.47;;;14.00;54.50;;;;;;5098210;28;20044;-72
2021/03/14 05:17:19;;;;;;;8.43;1.90;;;14.00;54.50;;;;;;5098859;28;20039;-72
2021/03/14 05:19:45;;;;;;;10.68;2.55;;;14.00;54.50;;;;;;5097480;28;20063;-71
2021/03/14 05:22:12;;;;;;;13.40;3.22;;;14.00;54.70;;;;;;5098433;28;20061;-73
2021/03/14 05:24:39;;;;;;;11.05;2.00;;;14.00;55.30;;;;;;5098600;28;20036;-73
2021/03/14 05:27:07;;;;;;;11.27;3.70;;;14.10;55.60;;;;;;5097762;28;20048;-72
2021/03/14 05:29:33;;;;;;;11.40;2.67;;;14.10;56.10;;;;;;5098310;28;20104;-72
2021/03/14 05:31:59;;;;;;;10.38;2.55;;;14.30;56.90;;;;;;5093999;28;20480;-72
2021/03/14 05:34:25;;;;;;;9.13;1.90;;;14.40;56.30;;;;;;5096622;28;20036;-69
2021/03/14 05:36:51;;;;;;;10.68;2.35;;;14.50;56.50;;;;;;5093758;28;20099;-71
2021/03/14 05:39:17;;;;;;;8.68;2.92;;;14.70;56.60;;;;;;5096020;28;20028;-72
2021/03/14 05:41:44;;;;;;;10.55;2.72;;;14.90;57.30;;;;;;5095390;28;20064;-78
2021/03/14 05:44:11;;;;;;;16.10;3.13;;;15.00;56.60;;;;;;5096569;28;20137;-76
2021/03/14 05:46:37;;;;;;;13.68;2.80;;;15.20;57.10;;;;;;5093509;28;20341;-74
2021/03/14 05:49:05;;;;;;;19.27;2.78;;;15.50;57.00;;;;;;5096395;28;20432;-82
2021/03/14 05:51:34;;;;;;;13.20;2.83;;;15.60;56.80;;;;;;5097709;28;20060;-75
2021/03/14 05:54:00;;;;;;;7.82;2.38;;;15.70;57.00;;;;;;5095180;28;20042;-75
2021/03/14 05:56:28;;;;;;;11.38;2.38;;;15.90;56.80;;;;;;5094808;28;20062;-72
2021/03/14 05:58:55;;;;;;;13.63;2.40;;;16.10;56.90;;;;;;5097289;28;20047;-74
2021/03/14 06:01:28;;;;;;;11.10;2.10;;;16.20;56.90;;;;;;5089594;28;20135;-74
2021/03/14 06:03:56;;;;;;;12.30;2.33;;;16.30;56.80;;;;;;5096072;28;20044;-73
2021/03/14 06:06:22;;;;;;;10.43;2.30;;;16.40;56.50;;;;;;5096440;28;20449;-74
2021/03/14 06:08:51;;;;;;;15.27;2.78;;;16.50;57.00;;;;;;5095031;28;20032;-75
2021/03/14 06:11:17;;;;;;;13.90;2.38;;;16.50;56.70;;;;;;5095598;28;20035;-75
2021/03/14 06:13:45;;;;;;;10.10;2.38;;;16.60;56.70;;;;;;5095665;28;20078;-73
2021/03/14 06:16:11;;;;;;;9.90;2.05;;;16.70;56.90;;;;;;5097179;28;20423;-73
2021/03/14 06:18:38;;;;;;;10.65;2.22;;;16.70;56.60;;;;;;5094086;28;20036;-73
2021/03/14 06:21:18;;;;;;;8.80;2.05;;;16.70;56.70;;;;;;5093994;28;20123;-75
2021/03/14 06:23:56;;;;;;;10.07;2.17;;;16.80;56.80;;;;;;5093933;28;20043;-76
2021/03/14 06:26:44;;;;;;;6.88;1.98;;;16.80;56.70;;;;;;5095614;28;20047;-74
2021/03/14 06:29:18;;;;;;;9.77;1.92;;;16.90;56.60;;;;;;5076847;28;20339;-75
2021/03/14 06:31:59;;;;;;;8.07;2.55;;;16.90;56.70;;;;;;5076868;28;20041;-75
2021/03/14 06:34:36;;;;;;;11.30;2.42;;;17.00;56.70;;;;;;5093368;28;20070;-83
2021/03/14 06:37:09;;;;;;;10.82;2.08;;;17.00;56.80;;;;;;5093980;28;20040;-78
2021/03/14 06:39:38;;;;;;;9.20;2.30;;;17.10;56.60;;;;;;5092722;28;20403;-73
2021/03/14 06:42:04;;;;;;;11.48;2.63;;;17.10;56.50;;;;;;5096019;28;20040;-74
2021/03/14 06:44:33;;;;;;;7.43;1.40;;;17.10;56.50;;;;;;5096196;28;20124;-76
2021/03/14 06:47:00;;;;;;;6.63;1.85;;;17.10;56.90;;;;;;5077190;28;20045;-73
2021/03/14 06:49:28;;;;;;;10.77;2.42;;;17.10;57.10;;;;;;5096369;28;20040;-73
2021/03/14 06:51:59;;;;;;;7.63;1.40;;;17.10;56.90;;;;;;5094182;28;20419;-73
2021/03/14 06:54:40;;;;;;;10.43;2.13;;;17.10;56.80;;;;;;5088012;28;20481;-73
2021/03/14 06:57:18;;;;;;;8.40;2.20;;;17.10;56.70;;;;;;5093094;28;20044;-76
2021/03/14 06:59:53;;;;;;;8.38;1.50;;;17.10;56.60;;;;;;5093934;28;20081;-73
2021/03/14 07:02:23;;;;;;;7.10;1.95;;;17.20;56.90;;;;;;5094013;28;20047;-74
2021/03/14 07:04:51;;;;;;;7.35;2.17;;;17.20;56.50;;;;;;5095949;28;20042;-72
2021/03/14 07:07:41;;;;;;;10.13;2.30;;;17.30;56.60;;;;;;5095389;28;20046;-75
2021/03/14 07:10:14;;;;;;;5.20;1.40;;;17.30;56.50;;;;;;5094914;28;20097;-73
2021/03/14 07:12:45;;;;;;;7.60;1.77;;;17.30;56.50;;;;;;5096062;28;20050;-72
2021/03/14 07:15:20;;;;;;;7.22;1.70;;;17.40;56.40;;;;;;5094961;28;20495;-71
2021/03/14 07:17:56;;;;;;;8.43;2.10;;;17.40;56.30;;;;;;5095398;28;20311;-73
2021/03/14 07:20:26;;;;;;;8.25;1.83;;;17.50;56.20;;;;;;5095422;28;20362;-73
2021/03/14 07:23:08;;;;;;;8.43;1.45;;;17.60;56.20;;;;;;5095364;28;20066;-70
2021/03/14 07:25:39;;;;;;;6.75;1.60;;;17.60;56.00;;;;;;5091255;28;20434;-71
2021/03/14 07:28:06;;;;;;;8.90;1.88;;;17.60;55.90;;;;;;5092667;28;20401;-70
2021/03/14 07:30:32;;;;;;;8.73;1.98;;;17.60;55.80;;;;;;5095577;28;20426;-69
2021/03/14 07:32:58;;;;;;;6.88;1.48;;;17.60;55.60;;;;;;5092525;28;20129;-68
2021/03/14 07:35:24;;;;;;;8.10;1.48;;;17.60;55.70;;;;;;5090130;28;20040;-71
2021/03/14 07:37:53;;;;;;;9.90;1.60;;;17.70;55.80;;;;;;5089121;28;20043;-71
2021/03/14 07:40:22;;;;;;;9.57;1.40;;;17.60;55.70;;;;;;5095796;28;20036;-71
2021/03/14 07:42:49;;;;;;;7.63;1.52;;;17.70;55.80;;;;;;5096534;28;20043;-71
2021/03/14 07:45:17;;;;;;;11.35;1.98;;;17.60;55.70;;;;;;5095152;28;20047;-71
2021/03/14 07:47:44;;;;;;;8.45;1.65;;;17.60;55.70;;;;;;5095073;28;20036;-70
2021/03/14 07:50:18;;;;;;;10.30;1.92;;;17.50;55.10;;;;;;5095805;28;20064;-72
2021/03/14 07:52:44;;;;;;;9.10;1.98;;;17.40;55.10;;;;;;5095722;28;20331;-71
2021/03/14 07:55:18;;;;;;;7.22;2.08;;;17.40;55.20;;;;;;5086681;28;20499;-71
2021/03/14 07:57:46;;;;;;;10.45;1.95;;;17.40;55.30;;;;;;5095054;28;20044;-71
2021/03/14 08:00:37;;;;;;;14.23;2.60;;;17.30;55.30;;;;;;5095475;28;20048;-72
2021/03/14 08:03:10;;;;;;;14.38;2.38;;;17.20;54.00;;;;;;5095033;28;20453;-72
2021/03/14 08:05:45;;;;;;;11.93;2.10;;;17.00;54.70;;;;;;5095277;28;20355;-72
2021/03/14 08:08:17;;;;;;;14.05;2.58;;;16.90;54.90;;;;;;5095252;28;20052;-72
2021/03/14 08:10:44;;;;;;;11.82;2.75;;;16.80;55.40;;;;;;5094543;28;20071;-72
2021/03/14 08:13:31;;;;;;;10.95;2.38;;;16.80;55.80;;;;;;5094551;28;20070;-71
2021/03/14 08:16:05;;;;;;;7.30;1.75;;;16.80;55.20;;;;;;5092108;28;20040;-72
2021/03/14 08:18:42;;;;;;;14.07;2.13;;;16.70;55.50;;;;;;5094850;28;20127;-71
2021/03/14 08:21:19;;;;;;;10.20;1.70;;;16.70;54.50;;;;;;5094490;28;20051;-70
2021/03/14 08:23:51;;;;;;;9.05;2.13;;;16.60;55.10;;;;;;5095819;28;20426;-72
2021/03/14 08:26:16;;;;;;;12.70;2.00;;;16.60;55.20;;;;;;5094172;28;20383;-71
2021/03/14 08:28:56;;;;;;;10.75;2.60;;;16.60;55.30;;;;;;5095191;28;20036;-73
2021/03/14 08:31:49;;;;;;;12.02;2.45;;;16.50;55.60;;;;;;5095835;28;20118;-72
2021/03/14 08:34:28;;;;;;;8.40;1.45;;;16.50;55.90;;;;;;5088726;28;20056;-71
2021/03/14 08:36:55;;;;;;;9.85;1.90;;;16.50;56.30;;;;;;5098047;28;20069;-73
2021/03/14 08:39:27;;;;;;;11.73;1.75;;;16.50;56.10;;;;;;5098647;28;20120;-77
2021/03/14 08:41:57;;;;;;;14.45;2.00;;;16.40;55.00;;;;;;5098349;28;20098;-73
2021/03/14 08:44:38;;;;;;;15.32;2.72;;;16.30;54.70;;;;;;5098339;28;20032;-72
2021/03/14 08:47:13;;;;;;;14.50;2.42;;;16.30;54.60;;;;;;5099763;28;20036;-70
2021/03/14 08:49:46;;;;;;;15.32;2.08;;;16.20;55.10;;;;;;5098789;28;20115;-70
2021/03/14 08:52:13;;;;;;;25.95;2.42;;;16.20;55.40;;;;;;5098558;28;20051;-72
2021/03/14 08:54:49;;;;;;;13.63;2.13;;;16.20;55.50;;;;;;5080423;28;20036;-72
2021/03/14 08:57:17;;;;;;;16.55;2.13;;;16.30;55.40;;;;;;5099020;28;20426;-71
2021/03/14 08:59:52;;;;;;;14.73;2.42;;;16.40;55.60;;;;;;5098766;28;20048;-73
2021/03/14 09:02:26;;;;;;;10.77;1.80;;;16.50;55.70;;;;;;5097996;28;20058;-72
2021/03/14 09:04:52;;;;;;;;;;;16.60;55.60;;;;;;5099182;28;20039;-72
2021/03/14 09:07:18;;;;;;;25.23;2.85;;;16.80;55.60;;;;;;5098428;28;19916;-71
2021/03/14 09:09:44;;;;;;;13.55;2.05;;;16.90;55.40;;;;;;5097876;28;20118;-71
2021/03/14 09:12:15;;;;;;;22.80;2.20;;;16.90;55.30;;;;;;5096767;28;20308;-72
2021/03/14 09:14:46;;;;;;;18.88;2.42;;;17.00;54.40;;;;;;5097215;28;20097;-69
2021/03/14 09:17:16;;;;;;;19.92;2.63;;;17.00;54.90;;;;;;5097989;28;20035;-71
2021/03/14 09:19:43;;;;;;;14.00;2.35;;;17.00;54.90;;;;;;5098024;28;20080;-69
2021/03/14 09:22:23;;;;;;;18.05;3.03;;;17.10;54.90;;;;;;5098367;28;20040;-72
2021/03/14 09:24:51;;;;;;;13.80;1.73;;;17.20;55.00;;;;;;5097795;28;20096;-70
2021/03/14 09:27:28;;;;;;;12.77;2.22;;;17.30;54.90;;;;;;5098203;28;20059;-70
2021/03/14 09:29:58;;;;;;;13.68;1.80;;;17.40;54.90;;;;;;5098179;28;20044;-71
2021/03/14 09:32:26;;;;;;;8.70;1.63;;;17.40;54.90;;;;;;5097088;28;20040;-71
2021/03/14 09:35:17;;;;;;;12.30;1.55;;;17.50;54.90;;;;;;5094970;28;20032;-69
2021/03/14 09:37:50;;;;;;;9.40;1.58;;;17.50;54.80;;;;;;5097635;28;20044;-70
2021/03/14 09:40:36;;;;;;;11.18;1.77;;;17.60;54.70;;;;;;5096487;28;20473;-70
2021/03/14 09:43:18;;;;;;;8.60;1.77;;;17.60;54.80;;;;;;5085677;28;20057;-70
2021/03/14 09:45:48;;;;;;;10.80;1.75;;;17.70;54.80;;;;;;5093005;28;20067;-70
2021/03/14 09:48:19;;;;;;;8.85;1.42;;;17.90;54.60;;;;;;5097229;28;20043;-72
2021/03/14 09:50:52;;;;;;;9.55;1.42;;;17.90;54.40;;;;;;5097397;28;20112;-71
2021/03/14 09:53:22;;;;;;;12.43;1.35;;;17.90;53.60;;;;;;5097526;28;20338;-73
2021/03/14 09:55:53;;;;;;;9.32;1.75;;;17.90;54.20;;;;;;5094432;28;20039;-71
2021/03/14 09:58:24;;;;;;;12.63;1.65;;;18.00;55.20;;;;;;5097431;28;20063;-71
2021/03/14 10:00:52;;;;;;;9.65;1.88;;;18.00;54.50;;;;;;5095284;28;20064;-70
2021/03/14 10:03:23;;;;;;;9.48;1.85;;;18.10;54.40;;;;;;5098068;28;20040;-70
2021/03/14 10:05:54;;;;;;;6.35;1.10;;;18.10;54.40;;;;;;5091257;28;20046;-71
2021/03/14 10:08:24;;;;;;;6.95;1.75;;;18.20;54.40;;;;;;5097933;28;20373;-71
2021/03/14 10:11:04;;;;;;;13.30;1.77;;;18.20;54.20;;;;;;5097014;28;20040;-75
2021/03/14 10:13:33;;;;;;;9.63;1.75;;;18.20;54.40;;;;;;5079752;28;20035;-78
2021/03/14 10:16:02;;;;;;;8.82;1.60;;;18.20;54.40;;;;;;5097454;28;20476;-78
2021/03/14 10:18:30;;;;;;;6.88;1.50;;;18.20;54.40;;;;;;5097229;28;20036;-78
2021/03/14 10:21:17;;;;;;;9.35;1.48;;;18.30;54.40;;;;;;5097543;28;20335;-78
2021/03/14 10:23:43;;;;;;;9.02;1.75;;;18.30;54.60;;;;;;5078757;28;20043;-71
2021/03/14 10:26:11;;;;;;;9.15;1.60;;;18.30;54.80;;;;;;5096130;28;20028;-71
2021/03/14 10:28:38;;;;;;;11.27;1.42;;;18.30;54.90;;;;;;5096987;28;20048;-71
2021/03/14 10:31:06;;;;;;;12.38;1.67;;;18.30;54.90;;;;;;5096600;28;20039;-70
2021/03/14 10:33:34;;;;;;;8.02;1.48;;;18.30;54.70;;;;;;5094867;28;20043;-71
2021/03/14 10:36:06;;;;;;;6.63;1.00;;;18.30;54.60;;;;;;5096889;28;20044;-73
2021/03/14 10:38:40;;;;;;;8.93;1.50;;;18.40;54.60;;;;;;5096705;28;20032;-72
2021/03/14 10:41:14;;;;;;;8.30;1.45;;;18.40;54.50;;;;;;5095020;28;20450;-71
2021/03/14 10:43:45;;;;;;;15.27;1.73;;;18.30;54.40;;;;;;5080394;28;20458;-80
2021/03/14 10:46:11;;;;;;;11.35;2.05;;;18.40;54.70;;;;;;5096830;28;20028;-72
2021/03/14 10:48:37;;;;;;;16.08;2.33;;;18.40;54.80;;;;;;5095312;28;20043;-71
2021/03/14 10:51:08;;;;;;;10.68;1.83;;;18.30;54.70;;;;;;5095845;28;20149;-70
2021/03/14 10:53:34;;;;;;;6.57;1.40;;;18.40;54.80;;;;;;5096450;28;20048;-72
2021/03/14 10:56:08;;;;;;;12.15;1.77;;;18.30;54.50;;;;;;5095631;28;20146;-75
2021/03/14 10:58:37;;;;;;;15.35;1.90;;;18.30;54.50;;;;;;5095572;28;20067;-74
2021/03/14 11:01:05;;;;;;;7.72;1.40;;;18.30;54.50;;;;;;5096533;28;20073;-72
2021/03/14 11:03:37;;;;;;;15.60;1.80;;;18.30;54.50;;;;;;5096621;28;20078;-73
2021/03/14 11:06:21;;;;;;;7.03;1.15;;;18.30;54.70;;;;;;5096542;28;20465;-77
2021/03/14 11:08:49;;;;;;;13.55;1.33;;;18.30;54.70;;;;;;5096375;28;20036;-75
2021/03/14 11:11:14;;;;;;;9.43;1.45;;;18.30;54.70;;;;;;5095721;28;20039;-73
2021/03/14 11:13:40;;;;;;;9.70;1.63;;;18.20;54.80;;;;;;5095240;28;20350;-75
2021/03/14 11:16:08;;;;;;;12.95;1.90;;;18.20;54.90;;;;;;5095858;28;20044;-72
2021/03/14 11:18:33;;;;;;;12.30;1.88;;;18.20;55.10;;;;;;5095323;28;20046;-74
2021/03/14 11:21:02;;;;;;;12.18;1.63;;;18.20;55.10;;;;;;5093680;28;20048;-73
2021/03/14 11:23:29;;;;;;;14.52;1.52;;;18.20;55.10;;;;;;5095826;28;20040;-72
2021/03/14 11:25:54;;;;;;;14.68;1.83;;;18.20;55.30;;;;;;5095906;28;20036;-73
2021/03/14 11:28:20;;;;;;;20.15;2.58;;;18.20;55.40;;;;;;5095231;28;20052;-73
2021/03/14 11:30:46;;;;;;;12.57;2.17;;;18.10;55.00;;;;;;5084132;28;20115;-71
2021/03/14 11:33:12;;;;;;;17.90;2.05;;;18.00;55.00;;;;;;5095110;28;20462;-71
2021/03/14 11:35:38;;;;;;;19.42;2.78;;;17.90;55.00;;;;;;5095961;28;20036;-73
2021/03/14 11:38:04;;;;;;;10.48;1.75;;;17.80;54.60;;;;;;5095268;28;20066;-73
2021/03/14 11:40:31;;;;;;;8.60;1.60;;;17.80;54.90;;;;;;5093079;28;20324;-72
2021/03/14 11:42:57;;;;;;;14.65;2.33;;;17.70;54.70;;;;;;5084356;28;20462;-71
2021/03/14 11:45:23;;;;;;;10.95;2.17;;;17.70;54.60;;;;;;5095330;28;20036;-71
2021/03/14 11:47:50;;;;;;;12.82;1.80;;;17.70;54.60;;;;;;5096003;28;20047;-73
2021/03/14 11:50:16;;;;;;;9.50;1.83;;;17.70;54.50;;;;;;5095632;28;20042;-71
2021/03/14 11:52:46;;;;;;;15.50;2.15;;;17.60;54.40;;;;;;5095299;28;20044;-71
2021/03/14 11:55:13;;;;;;;11.10;1.60;;;17.60;54.30;;;;;;5095589;28;20039;-72
2021/03/14 11:57:39;;;;;;;9.75;2.33;;;17.60;54.20;;;;;;5095831;28;20073;-69
2021/03/14 12:00:06;;;;;;;7.93;1.60;;;17.60;54.30;;;;;;5095169;28;20113;-69
2021/03/14 12:02:32;;;;;;;8.65;1.50;;;17.60;54.20;;;;;;5095025;28;20108;-71
2021/03/14 12:04:58;;;;;;;6.80;1.65;;;17.50;54.20;;;;;;5094309;28;20031;-70
2021/03/14 12:07:25;;;;;;;8.73;1.50;;;17.50;54.20;;;;;;5095327;28;20413;-72
2021/03/14 12:09:52;;;;;;;8.65;1.70;;;17.50;54.20;;;;;;5095156;28;20036;-70
2021/03/14 12:12:18;;;;;;;9.57;1.65;;;17.50;54.20;;;;;;5095077;28;20105;-71
2021/03/14 12:14:44;;;;;;;6.40;1.63;;;17.50;54.20;;;;;;5095158;28;20035;-70
2021/03/14 12:17:10;;;;;;;8.02;1.42;;;17.40;54.20;;;;;;5095538;28;20063;-72
2021/03/14 12:19:36;;;;;;;10.32;1.98;;;17.40;54.20;;;;;;5095412;28;20036;-73
2021/03/14 12:22:02;;;;;;;10.70;1.80;;;17.40;54.30;;;;;;5094752;28;20036;-72
2021/03/14 12:24:28;;;;;;;8.82;1.33;;;17.30;54.30;;;;;;5095176;28;20494;-71
2021/03/14 12:26:54;;;;;;;9.25;1.30;;;17.30;54.30;;;;;;5095126;28;20036;-72
2021/03/14 12:29:19;;;;;;;6.60;1.27;;;17.30;54.30;;;;;;5095531;28;20040;-70
2021/03/14 12:31:45;;;;;;;6.00;1.40;;;17.30;54.30;;;;;;5094792;28;20032;-71
2021/03/14 12:34:11;;;;;;;7.70;1.02;;;17.30;54.30;;;;;;5095333;28;20047;-73
2021/03/14 12:36:37;;;;;;;6.38;1.50;;;17.20;54.30;;;;;;5095133;28;20040;-70
2021/03/14 12:39:03;;;;;;;3.10;1.35;;;17.20;54.30;;;;;;5094748;28;20036;-70
2021/03/14 12:41:29;;;;;;;6.25;1.42;;;17.20;54.30;;;;;;5095126;28;20047;-70
2021/03/14 12:43:56;;;;;;;5.63;1.38;;;17.10;54.30;;;;;;5094824;28;20058;-71
2021/03/14 12:46:22;;;;;;;6.10;1.20;;;17.10;54.40;;;;;;5095199;28;20075;-71
2021/03/14 12:48:48;;;;;;;5.85;1.20;;;17.10;54.30;;;;;;5095199;28;20108;-72
2021/03/14 12:51:13;;;;;;;6.38;1.17;;;17.10;54.30;;;;;;5094701;28;20051;-70
2021/03/14 12:53:39;;;;;;;8.77;2.08;;;17.00;54.40;;;;;;5094751;28;20055;-71